Time;durP1;ratioP1;P1;durP2;ratioP2;P2;SDS_P1;SDS_P2;PMS_P1;PMS_P2;Temp;Humidity;BMP_temperature;BMP_pressure;BME280_temperature;BME280_humidity;BME280_pressure;Samples;Min_cycle;Max_cycle;Signal;HPM_P1;HPM_P2
2022/12/29 00:01:24;;;;;;;;;0.00;0.00;;;;;12.38;75.91;100115.25;5025877;28;52018;-68
2022/12/29 00:03:49;;;;;;;;;0.00;0.00;;;;;12.50;75.80;100136.78;5028492;28;45804;-68
2022/12/29 00:06:14;;;;;;;;;1.33;0.33;;;;;12.52;76.12;100143.06;5027155;28;60093;-67
2022/12/29 00:08:40;;;;;;;;;1.00;0.00;;;;;12.51;75.90;100127.84;5021933;28;45466;-67
2022/12/29 00:11:07;;;;;;;;;0.00;0.00;;;;;12.50;75.77;100125.16;5025280;28;45850;-66
2022/12/29 00:16:16;;;;;;;;;1.67;1.67;;;;;12.55;75.29;100126.09;5027241;28;45350;-66
2022/12/29 00:18:42;;;;;;;;;4.67;2.00;;;;;12.50;75.39;100120.69;5025311;28;45854;-67
2022/12/29 00:35:09;;;;;;;;;1.67;1.67;;;;;12.62;75.05;100110.97;5032975;28;45896;-66
2022/12/29 00:45:49;;;;;;;;;1.00;1.00;;;;;12.62;77.00;100090.44;5025018;28;46863;-69
2022/12/29 00:48:14;;;;;;;;;1.00;1.00;;;;;12.47;76.73;100064.44;5026686;28;52221;-68
2022/12/29 00:50:40;;;;;;;;;1.33;1.00;;;;;12.61;77.26;100091.31;5026298;28;45455;-69
2022/12/29 00:53:05;;;;;;;;;5.67;1.67;;;;;12.56;77.33;100090.38;5026136;28;46123;-68
2022/12/29 00:55:30;;;;;;;;;6.00;1.67;;;;;12.62;78.23;100090.44;5026400;28;45398;-68
2022/12/29 00:57:56;;;;;;;;;2.33;2.33;;;;;12.50;77.30;100066.22;5027427;28;47473;-68
2022/12/29 01:00:21;;;;;;;;;3.00;2.00;;;;;12.56;77.26;100103.78;5033187;28;45377;-67
2022/12/29 01:02:46;;;;;;;;;1.00;1.00;;;;;12.44;77.31;100082.25;5024197;28;45687;-66
2022/12/29 01:05:12;;;;;;;;;3.33;3.00;;;;;12.60;77.95;100113.63;5036176;28;45535;-66
2022/12/29 01:07:37;;;;;;;;;3.00;1.00;;;;;12.60;77.45;100119.00;5032236;28;45528;-67
2022/12/29 01:10:12;;;;;;;;;2.67;1.67;;;;;12.54;77.98;100116.28;5023321;28;45374;-66
2022/12/29 01:12:41;;;;;;;;;1.00;1.00;;;;;12.55;78.66;100115.38;5031674;28;45409;-65
2022/12/29 01:15:10;;;;;;;;;4.00;4.00;;;;;12.48;79.13;100114.44;5030203;28;45638;-67
2022/12/29 01:17:36;;;;;;;;;3.00;3.00;;;;;12.47;80.43;100109.97;5022664;28;45422;-67
2022/12/29 01:20:02;;;;;;;;;8.00;5.67;;;;;12.48;80.31;100121.59;5030319;28;45438;-67
2022/12/29 01:22:28;;;;;;;;;8.33;6.33;;;;;12.37;79.77;100100.03;5029936;28;45522;-66
2022/12/29 01:24:53;;;;;;;;;5.67;3.00;;;;;12.48;80.45;100110.88;5017796;28;46010;-68
2022/12/29 01:27:18;;;;;;;;;1.00;1.00;;;;;12.46;80.09;100118.88;5028973;28;45289;-69
2022/12/29 01:29:44;;;;;;;;;2.67;1.00;;;;;12.49;79.86;100104.63;5036159;28;45443;-67
2022/12/29 01:32:09;;;;;;;;;1.67;1.67;;;;;12.52;80.09;100100.19;5036252;28;45445;-68
2022/12/29 01:34:34;;;;;;;;;4.00;1.67;;;;;12.52;79.55;100110.91;5035550;28;45614;-66
2022/12/29 01:36:59;;;;;;;;;7.67;5.67;;;;;12.52;79.50;100110.00;5022975;28;45461;-66
2022/12/29 01:39:25;;;;;;;;;1.00;1.00;;;;;12.53;79.17;100111.78;5026729;28;45545;-67
2022/12/29 01:41:50;;;;;;;;;8.00;4.00;;;;;12.52;79.46;100108.22;5031244;28;45617;-69
2022/12/29 01:45:01;;;;;;;;;4.33;2.00;;;;;12.53;79.17;100114.47;5026937;28;45673;-68
2022/12/29 01:47:52;;;;;;;;;4.67;2.00;;;;;12.30;79.17;100076.78;5015845;28;45587;-68
2022/12/29 01:50:20;;;;;;;;;1.00;1.00;;;;;12.51;78.29;100122.50;5031479;28;45486;-69
2022/12/29 01:52:56;;;;;;;;;0.33;0.33;;;;;12.47;78.12;100118.03;5030896;28;45513;-66
2022/12/29 01:55:23;;;;;;;;;1.00;1.00;;;;;12.38;77.59;100109.88;5030215;28;45336;-65
2022/12/29 01:57:52;;;;;;;;;0.00;0.00;;;;;12.44;77.94;100134.06;5026576;28;45480;-66
2022/12/29 02:00:18;;;;;;;;;3.00;1.00;;;;;12.31;76.25;100108.94;5031894;28;45379;-67
2022/12/29 02:02:49;;;;;;;;;0.33;0.33;;;;;12.25;76.44;100116.91;5028232;28;45340;-67
2022/12/29 02:05:39;;;;;;;;;0.00;0.00;;;;;12.35;76.45;100117.91;5029360;28;46658;-67
2022/12/29 02:08:05;;;;;;;;;0.67;0.00;;;;;12.33;76.36;100120.56;5022996;28;45304;-66
2022/12/29 02:10:33;;;;;;;;;0.00;0.00;;;;;12.24;76.08;100115.13;5029767;28;45730;-66
2022/12/29 02:12:58;;;;;;;;;0.00;0.00;;;;;12.26;76.05;100131.19;5026194;28;45473;-68
2022/12/29 02:15:45;;;;;;;;;0.00;0.00;;;;;12.24;75.61;100141.91;5009952;28;47604;-66
2022/12/29 02:18:38;;;;;;;;;0.00;0.00;;;;;12.19;75.90;100143.63;5027801;28;45707;-66
2022/12/29 02:21:41;;;;;;;;;0.33;0.00;;;;;12.15;76.57;100141.81;5030128;28;45455;-69
2022/12/29 02:24:41;;;;;;;;;0.00;0.00;;;;;12.07;76.87;100138.16;5030864;28;45590;-68
2022/12/29 02:27:11;;;;;;;;;0.00;0.00;;;;;12.06;77.69;100142.63;4971274;28;45614;-66
2022/12/29 02:29:36;;;;;;;;;0.00;0.00;;;;;12.03;77.89;100142.59;5018842;28;45493;-67
2022/12/29 02:32:23;;;;;;;;;2.00;0.00;;;;;11.99;77.47;100140.75;5023820;28;45536;-66
2022/12/29 02:34:58;;;;;;;;;0.00;0.00;;;;;11.97;76.32;100135.38;5033815;28;45460;-66
2022/12/29 02:37:46;;;;;;;;;0.00;0.00;;;;;11.97;76.71;100131.81;5028578;28;45344;-66
2022/12/29 02:40:19;;;;;;;;;0.00;0.00;;;;;11.95;76.26;100120.19;5001518;28;45444;-67
2022/12/29 02:43:03;;;;;;;;;0.00;0.00;;;;;11.83;76.35;100095.91;5033520;28;45391;-66
2022/12/29 02:45:38;;;;;;;;;0.00;0.00;;;;;11.93;76.35;100117.50;5022174;28;45351;-67
2022/12/29 02:48:14;;;;;;;;;0.00;0.00;;;;;11.95;75.74;100113.06;5032725;28;46595;-66
2022/12/29 02:50:48;;;;;;;;;1.00;0.00;;;;;11.94;76.02;100116.59;5031249;28;45228;-66
2022/12/29 02:53:17;;;;;;;;;2.00;0.00;;;;;11.92;75.28;100107.66;5028990;28;45362;-66
2022/12/29 02:55:49;;;;;;;;;0.00;0.00;;;;;11.92;74.87;100113.00;5017374;28;45739;-67
2022/12/29 02:58:17;;;;;;;;;0.00;0.00;;;;;11.59;75.75;100060.88;5027747;28;46808;-65
2022/12/29 03:01:21;;;;;;;;;0.00;0.00;;;;;11.95;75.17;100125.53;5031411;28;45309;-66
2022/12/29 03:04:21;;;;;;;;;0.00;0.00;;;;;11.91;75.41;100108.56;5000859;28;45404;-67
2022/12/29 03:07:23;;;;;;;;;0.00;0.00;;;;;11.97;74.61;100100.56;5007870;28;45464;-67
2022/12/29 03:10:14;;;;;;;;;0.00;0.00;;;;;11.89;74.32;100093.31;5031024;28;46503;-67
2022/12/29 03:15:59;;;;;;;;;0.33;0.33;;;;;11.93;73.92;100096.09;5025537;28;45403;-68
2022/12/29 03:18:35;;;;;;;;;0.00;0.00;;;;;11.75;73.30;100059.28;5028370;28;45443;-68
2022/12/29 03:24:29;;;;;;;;;0.00;0.00;;;;;12.03;73.06;100125.59;5027974;28;45454;-68
2022/12/29 03:26:59;;;;;;;;;0.00;0.00;;;;;12.04;72.63;100122.06;5033926;28;45472;-68
2022/12/29 03:29:28;;;;;;;;;0.00;0.00;;;;;12.01;73.11;100128.31;5026614;28;45383;-67
2022/12/29 03:31:55;;;;;;;;;3.67;0.67;;;;;11.95;72.78;100117.50;5029798;28;45497;-68
2022/12/29 03:34:22;;;;;;;;;0.00;0.00;;;;;11.75;73.10;100099.44;5026242;28;45359;-67
2022/12/29 03:36:53;;;;;;;;;1.00;0.00;;;;;11.90;72.54;100136.16;5028581;28;45395;-67
2022/12/29 03:39:22;;;;;;;;;0.00;0.00;;;;;11.88;72.29;100128.97;5026139;28;45483;-66
2022/12/29 03:41:54;;;;;;;;;0.00;0.00;;;;;11.89;72.12;100133.47;5029380;28;46845;-68
2022/12/29 03:44:19;;;;;;;;;0.00;0.00;;;;;11.86;72.39;100137.00;5031322;28;45575;-67
2022/12/29 03:46:45;;;;;;;;;1.33;0.00;;;;;11.88;71.75;100139.69;5031126;28;45522;-68
2022/12/29 03:49:10;;;;;;;;;0.00;0.00;;;;;11.92;72.44;100146.94;5030742;28;48867;-67
2022/12/29 03:51:35;;;;;;;;;0.00;0.00;;;;;11.82;72.38;100119.13;5021049;28;46230;-66
2022/12/29 03:54:00;;;;;;;;;1.00;0.00;;;;;11.93;72.13;100141.59;5030356;28;45366;-68
2022/12/29 03:56:26;;;;;;;;;1.00;1.00;;;;;11.90;71.31;100127.25;5025598;28;45553;-67
2022/12/29 03:58:51;;;;;;;;;1.00;0.00;;;;;11.93;71.12;100138.91;5030104;28;45326;-67
2022/12/29 04:01:17;;;;;;;;;2.67;0.00;;;;;11.80;71.38;100096.81;5025452;28;46406;-67
2022/12/29 04:03:42;;;;;;;;;2.00;0.00;;;;;11.95;71.84;100133.56;5028882;28;45281;-67
2022/12/29 04:06:07;;;;;;;;;1.00;0.00;;;;;11.90;72.05;100136.16;5022798;28;45706;-67
2022/12/29 04:08:33;;;;;;;;;0.00;0.00;;;;;11.92;71.94;100136.22;5027303;28;45535;-67
2022/12/29 04:10:58;;;;;;;;;0.00;0.00;;;;;11.91;71.74;100145.09;5027703;28;45898;-66
2022/12/29 04:13:24;;;;;;;;;0.00;0.00;;;;;11.85;71.56;100140.56;5026590;28;46675;-67
2022/12/29 04:15:49;;;;;;;;;0.00;0.00;;;;;11.92;71.81;100158.53;5027407;28;45679;-68
2022/12/29 04:18:15;;;;;;;;;1.00;0.00;;;;;11.65;71.88;100105.56;5033847;28;45511;-68
2022/12/29 04:20:59;;;;;;;;;1.00;1.00;;;;;11.89;72.52;100153.09;5028980;28;45440;-67
2022/12/29 04:23:31;;;;;;;;;0.00;0.00;;;;;11.90;71.74;100154.91;5026113;28;45272;-66
2022/12/29 04:25:56;;;;;;;;;0.00;0.00;;;;;11.91;72.04;100164.78;5027526;28;45423;-67
2022/12/29 04:28:22;;;;;;;;;1.33;0.00;;;;;11.92;71.59;100165.66;5028317;28;45375;-69
2022/12/29 04:30:48;;;;;;;;;2.00;1.00;;;;;11.89;72.04;100162.91;5021536;28;45497;-68
2022/12/29 04:33:13;;;;;;;;;0.00;0.00;;;;;11.93;71.85;100171.03;5039625;28;45590;-68
2022/12/29 04:35:39;;;;;;;;;3.00;1.33;;;;;11.93;71.75;100170.16;5039931;28;45242;-68
2022/12/29 04:38:04;;;;;;;;;0.67;0.00;;;;;11.62;71.60;100113.53;5040852;28;45660;-65
2022/12/29 04:40:30;;;;;;;;;1.33;0.00;;;;;11.87;72.13;100152.19;5004181;28;47864;-67
2022/12/29 04:42:55;;;;;;;;;0.00;0.00;;;;;11.94;71.38;100172.81;5033863;28;45296;-66
2022/12/29 04:45:21;;;;;;;;;0.00;0.00;;;;;11.90;70.85;100178.09;5022222;28;45349;-65
2022/12/29 04:47:46;;;;;;;;;1.33;0.33;;;;;11.88;72.10;100186.13;5038804;28;45733;-69
2022/12/29 04:50:12;;;;;;;;;1.00;0.00;;;;;11.87;71.74;100181.63;5030039;28;45959;-67
2022/12/29 04:52:37;;;;;;;;;0.00;0.00;;;;;11.90;71.45;100183.47;5030406;28;45560;-67
2022/12/29 04:55:03;;;;;;;;;2.00;1.00;;;;;11.97;72.04;100186.25;5030410;28;45316;-68
2022/12/29 04:57:29;;;;;;;;;0.00;0.00;;;;;11.98;71.18;100185.38;5036630;28;45550;-67
2022/12/29 04:59:54;;;;;;;;;5.00;1.00;;;;;12.00;70.85;100193.41;5026777;28;46010;-67
2022/12/29 05:02:19;;;;;;;;;3.33;0.00;;;;;12.00;71.39;100185.38;5035637;28;45594;-68
2022/12/29 05:04:45;;;;;;;;;0.00;0.00;;;;;12.04;71.45;100186.31;5031731;28;45503;-68
2022/12/29 05:07:12;;;;;;;;;0.67;0.00;;;;;12.06;70.86;100205.97;5039932;28;45461;-69
2022/12/29 05:09:37;;;;;;;;;0.00;0.00;;;;;11.98;71.32;100193.41;5035505;28;45646;-67
2022/12/29 05:12:03;;;;;;;;;0.67;0.00;;;;;12.02;71.18;100201.47;5033003;28;45442;-67
2022/12/29 05:14:28;;;;;;;;;2.00;1.00;;;;;12.01;70.39;100200.59;5028902;28;45351;-69
2022/12/29 05:16:54;;;;;;;;;0.00;0.00;;;;;12.04;70.54;100211.31;5034565;28;45542;-68
2022/12/29 05:19:19;;;;;;;;;2.00;0.67;;;;;12.01;70.36;100199.66;5027984;28;46440;-67
2022/12/29 05:21:44;;;;;;;;;1.67;1.33;;;;;12.05;69.88;100213.09;5033895;28;45379;-68
2022/12/29 05:24:10;;;;;;;;;1.00;0.00;;;;;12.05;69.89;100212.22;5032495;28;45395;-68
2022/12/29 05:26:35;;;;;;;;;1.00;0.00;;;;;12.00;70.65;100203.25;5033970;28;45421;-69
2022/12/29 05:29:01;;;;;;;;;0.00;0.00;;;;;11.97;70.05;100204.97;5038599;28;46111;-68
2022/12/29 05:31:27;;;;;;;;;1.33;1.33;;;;;12.00;70.42;100211.28;5038767;28;45405;-68
2022/12/29 05:33:52;;;;;;;;;2.67;0.00;;;;;11.96;70.76;100216.59;5034388;28;45359;-67
2022/12/29 05:36:18;;;;;;;;;1.67;0.67;;;;;11.99;69.67;100226.41;5033026;28;45447;-68
2022/12/29 05:38:43;;;;;;;;;1.33;0.00;;;;;11.90;70.42;100210.22;5028849;28;46323;-67
2022/12/29 05:41:09;;;;;;;;;3.00;0.00;;;;;11.97;69.53;100225.50;5039175;28;45541;-68
2022/12/29 05:43:35;;;;;;;;;2.00;1.00;;;;;11.94;68.88;100225.47;5031039;28;45424;-67
2022/12/29 05:46:00;;;;;;;;;0.00;0.00;;;;;11.91;67.93;100230.75;5027322;28;45339;-70
2022/12/29 05:48:26;;;;;;;;;0.00;0.00;;;;;11.91;68.38;100237.06;5031910;28;45490;-69
2022/12/29 05:50:52;;;;;;;;;3.67;1.00;;;;;11.83;68.98;100216.38;5033057;28;45440;-68
2022/12/29 05:53:17;;;;;;;;;1.00;0.00;;;;;11.88;68.90;100230.69;5035247;28;45242;-68
2022/12/29 05:55:44;;;;;;;;;0.00;0.00;;;;;11.90;68.75;100235.22;5028751;28;45469;-68
2022/12/29 05:58:10;;;;;;;;;5.33;0.67;;;;;11.91;67.55;100231.69;5034408;28;45458;-67
2022/12/29 06:00:35;;;;;;;;;2.00;0.00;;;;;11.91;68.09;100242.41;5028834;28;45433;-67
2022/12/29 06:03:00;;;;;;;;;0.00;0.00;;;;;11.85;67.53;100238.72;5025660;28;45633;-67
2022/12/29 06:05:26;;;;;;;;;3.00;0.33;;;;;11.59;67.97;100199.13;5030665;28;45624;-68
2022/12/29 06:07:51;;;;;;;;;5.00;1.00;;;;;11.87;66.97;100251.22;5005290;28;47030;-69
2022/12/29 06:10:17;;;;;;;;;4.00;1.00;;;;;11.87;67.30;100253.91;5029722;28;45634;-66
2022/12/29 06:12:42;;;;;;;;;3.67;0.00;;;;;11.78;67.75;100233.28;5024380;28;45477;-67
2022/12/29 06:15:08;;;;;;;;;2.00;0.00;;;;;11.87;66.52;100259.25;5028980;28;45504;-67
2022/12/29 06:17:34;;;;;;;;;0.67;0.67;;;;;11.87;67.30;100256.56;5023095;28;46624;-68
2022/12/29 06:19:59;;;;;;;;;2.00;2.00;;;;;11.79;66.56;100252.91;5024556;28;45379;-68
2022/12/29 06:22:24;;;;;;;;;0.00;0.00;;;;;11.75;66.87;100254.66;5017232;28;45771;-67
2022/12/29 06:24:49;;;;;;;;;0.67;0.00;;;;;11.79;66.85;100267.16;5034605;28;45359;-67
2022/12/29 06:27:15;;;;;;;;;2.00;1.00;;;;;11.72;67.42;100265.31;5032956;28;46010;-68
2022/12/29 06:29:41;;;;;;;;;2.33;1.33;;;;;11.76;67.11;100280.53;5031988;28;45423;-67
2022/12/29 06:32:06;;;;;;;;;3.00;1.00;;;;;11.74;67.13;100284.06;5015649;28;45417;-66
2022/12/29 06:34:32;;;;;;;;;0.00;0.00;;;;;11.72;67.90;100280.47;5033892;28;45600;-66
2022/12/29 06:36:57;;;;;;;;;2.00;1.00;;;;;11.67;67.23;100290.22;5033204;28;46062;-68
2022/12/29 06:39:23;;;;;;;;;0.00;0.00;;;;;11.72;67.61;100299.19;5035260;28;45368;-69
2022/12/29 06:41:52;;;;;;;;;0.00;0.00;;;;;11.74;67.57;100316.16;5032206;28;45469;-68
2022/12/29 06:44:17;;;;;;;;;3.33;2.00;;;;;11.75;68.06;100313.53;5024759;28;45443;-67
2022/12/29 06:46:43;;;;;;;;;3.00;0.00;;;;;11.74;67.38;100317.06;5030752;28;45363;-69
2022/12/29 06:49:08;;;;;;;;;2.00;0.33;;;;;11.73;68.06;100322.38;5003587;28;45332;-70
2022/12/29 06:51:33;;;;;;;;;2.00;0.00;;;;;11.72;68.34;100329.53;5028158;28;45636;-66
2022/12/29 06:53:59;;;;;;;;;2.00;1.00;;;;;11.71;67.24;100334.84;5031170;28;45405;-67
2022/12/29 06:56:24;;;;;;;;;1.00;1.00;;;;;11.71;67.85;100329.50;5030203;28;56189;-66
2022/12/29 06:58:49;;;;;;;;;3.00;1.33;;;;;11.73;68.58;100335.78;5029193;28;45391;-67
2022/12/29 07:01:15;;;;;;;;;4.33;1.67;;;;;11.71;68.25;100327.72;5029038;28;45540;-67
2022/12/29 07:03:42;;;;;;;;;1.00;1.00;;;;;11.72;68.66;100337.56;5029814;28;45452;-66
2022/12/29 07:06:07;;;;;;;;;1.67;1.00;;;;;11.75;68.43;100339.41;5028922;28;46153;-66
2022/12/29 07:08:33;;;;;;;;;0.67;0.00;;;;;11.64;68.22;100320.50;5021710;28;45613;-68
2022/12/29 07:10:58;;;;;;;;;2.67;2.00;;;;;11.76;68.01;100350.13;5027447;28;45442;-67
2022/12/29 07:13:23;;;;;;;;;3.67;2.00;;;;;11.76;67.33;100341.16;5035413;28;45510;-66
2022/12/29 07:15:49;;;;;;;;;1.00;1.00;;;;;11.73;68.07;100346.47;5034515;28;45878;-67
2022/12/29 07:18:14;;;;;;;;;3.33;2.00;;;;;11.61;68.37;100326.72;5030844;28;45379;-68
2022/12/29 07:20:39;;;;;;;;;2.00;1.33;;;;;11.70;67.85;100339.31;5031789;28;45435;-66
2022/12/29 07:23:05;;;;;;;;;1.00;1.00;;;;;11.64;67.61;100336.53;5033673;28;45496;-66
2022/12/29 07:25:30;;;;;;;;;2.67;1.00;;;;;11.49;67.68;100313.13;5032815;28;45562;-68
2022/12/29 07:27:56;;;;;;;;;2.00;2.00;;;;;11.58;67.78;100331.09;5033174;28;45566;-66
2022/12/29 07:30:21;;;;;;;;;3.00;3.00;;;;;11.69;68.03;100348.22;5021510;28;45819;-68
2022/12/29 07:32:46;;;;;;;;;2.00;1.33;;;;;11.65;67.74;100342.78;5032930;28;45529;-66
2022/12/29 07:35:12;;;;;;;;;2.00;1.67;;;;;11.68;67.54;100349.09;5021120;28;46378;-67
2022/12/29 07:37:37;;;;;;;;;1.67;1.67;;;;;11.63;68.27;100342.75;5026525;28;57619;-67
2022/12/29 07:40:03;;;;;;;;;2.00;0.67;;;;;11.58;67.73;100342.72;5028602;28;45343;-69
2022/12/29 07:42:28;;;;;;;;;0.33;0.33;;;;;11.60;68.16;100353.44;5027738;28;45316;-68
2022/12/29 07:44:54;;;;;;;;;0.67;0.67;;;;;11.55;68.19;100364.06;5026598;28;46925;-68
2022/12/29 07:47:19;;;;;;;;;1.00;1.00;;;;;11.63;67.79;100380.22;5030595;28;45489;-68
2022/12/29 07:49:44;;;;;;;;;6.00;3.00;;;;;11.60;68.09;100375.72;5029061;28;45384;-66
2022/12/29 07:52:10;;;;;;;;;2.33;1.67;;;;;11.53;67.34;100367.56;5021543;28;45324;-70
2022/12/29 07:54:35;;;;;;;;;4.00;1.33;;;;;11.59;67.55;100376.59;5030803;28;45382;-66
2022/12/29 07:57:00;;;;;;;;;1.00;0.67;;;;;11.62;67.42;100381.13;5028434;28;45607;-67
2022/12/29 07:59:26;;;;;;;;;0.67;0.67;;;;;11.56;67.53;100376.53;5029171;28;45780;-66
2022/12/29 08:01:51;;;;;;;;;0.67;0.00;;;;;11.62;67.16;100392.72;5026571;28;45489;-67
2022/12/29 08:04:17;;;;;;;;;2.00;1.00;;;;;11.62;68.14;100402.53;5025422;28;46046;-67
2022/12/29 08:06:45;;;;;;;;;2.00;0.33;;;;;11.62;67.83;100408.75;5025018;28;45423;-67
2022/12/29 08:09:10;;;;;;;;;3.33;2.67;;;;;11.62;66.91;100411.44;5028020;28;45568;-66
2022/12/29 08:11:36;;;;;;;;;3.67;1.00;;;;;11.62;67.55;100407.88;5029615;28;45505;-68
2022/12/29 08:14:02;;;;;;;;;1.00;1.00;;;;;11.59;67.55;100406.03;5029573;28;46048;-68
2022/12/29 08:16:27;;;;;;;;;2.33;1.67;;;;;11.62;66.83;100418.56;5020854;28;45398;-67
2022/12/29 08:18:52;;;;;;;;;0.67;0.33;;;;;11.64;67.19;100418.59;5032420;28;45825;-68
2022/12/29 08:21:18;;;;;;;;;4.67;1.67;;;;;11.62;67.08;100423.94;5022257;28;54142;-67
2022/12/29 08:23:43;;;;;;;;;2.00;1.00;;;;;11.50;67.11;100403.22;5021183;28;46235;-67
2022/12/29 08:26:10;;;;;;;;;2.00;2.00;;;;;11.65;66.23;100428.41;5026570;28;45288;-68
2022/12/29 08:28:36;;;;;;;;;2.67;1.00;;;;;11.60;66.43;100423.00;5017426;28;45538;-68
2022/12/29 08:31:02;;;;;;;;;1.67;1.00;;;;;11.61;66.32;100425.72;5031536;28;45355;-67
2022/12/29 08:33:28;;;;;;;;;0.67;0.67;;;;;11.66;66.84;100440.94;5020114;28;46374;-69
2022/12/29 08:35:59;;;;;;;;;3.33;1.00;;;;;11.65;65.59;100442.72;5030915;28;45366;-67
2022/12/29 08:38:24;;;;;;;;;5.67;2.33;;;;;11.56;66.20;100434.50;5025204;28;45499;-64
2022/12/29 08:40:51;;;;;;;;;2.00;2.00;;;;;11.55;65.97;100435.38;5033609;28;45479;-68
2022/12/29 08:43:17;;;;;;;;;2.67;2.67;;;;;11.64;65.74;100454.28;5019843;28;46517;-68
2022/12/29 08:45:42;;;;;;;;;4.00;2.00;;;;;11.65;65.39;100450.75;5029604;28;45417;-67
2022/12/29 08:48:07;;;;;;;;;1.00;0.67;;;;;11.66;65.73;100462.34;5029798;28;45516;-67
2022/12/29 08:50:32;;;;;;;;;4.00;2.33;;;;;11.67;65.63;100465.03;5023374;28;45269;-67
2022/12/29 08:52:58;;;;;;;;;8.00;3.00;;;;;11.70;65.86;100464.22;5027981;28;54110;-68
2022/12/29 08:55:23;;;;;;;;;4.67;4.67;;;;;11.67;66.16;100462.38;5028942;28;45461;-67
2022/12/29 08:57:49;;;;;;;;;1.33;0.67;;;;;11.73;65.71;100466.91;5026247;28;45813;-67
2022/12/29 09:00:14;;;;;;;;;2.33;1.00;;;;;11.69;65.89;100467.75;5012824;28;45490;-66
2022/12/29 09:02:40;;;;;;;;;3.33;3.00;;;;;11.72;65.85;100479.41;5014159;28;48272;-67
2022/12/29 09:05:06;;;;;;;;;2.00;2.00;;;;;11.74;65.29;100476.75;5025036;28;45508;-66
2022/12/29 09:07:31;;;;;;;;;10.67;2.33;;;;;11.71;64.45;100469.56;5023268;28;45402;-65
2022/12/29 09:09:57;;;;;;;;;1.67;1.67;;;;;11.73;64.88;100470.50;5023724;28;45429;-68
2022/12/29 09:12:22;;;;;;;;;2.33;1.00;;;;;11.61;64.76;100449.78;5029448;28;45430;-67
2022/12/29 09:14:47;;;;;;;;;2.67;2.67;;;;;11.72;64.73;100478.50;5026992;28;47346;-67
2022/12/29 09:19:57;;;;;;;;;3.33;3.00;;;;;11.80;64.52;100485.78;5023942;28;45356;-66
2022/12/29 09:22:22;;;;;;;;;2.00;2.00;;;;;11.78;64.81;100478.63;5033106;28;45326;-66
2022/12/29 09:24:48;;;;;;;;;2.33;1.33;;;;;11.87;64.42;100494.81;5026159;28;45496;-65
2022/12/29 09:27:13;;;;;;;;;8.00;3.33;;;;;11.84;65.02;100493.88;5032710;28;45435;-66
2022/12/29 09:29:38;;;;;;;;;2.33;1.00;;;;;11.88;64.42;100501.97;5027576;28;45427;-66
2022/12/29 09:32:04;;;;;;;;;5.00;3.00;;;;;11.92;64.37;100506.53;5005213;28;54222;-66
2022/12/29 09:34:29;;;;;;;;;3.33;2.00;;;;;11.83;64.43;100501.00;5033311;28;45592;-67
2022/12/29 09:36:56;;;;;;;;;6.00;3.67;;;;;11.94;64.16;100518.16;5033053;28;45414;-69
2022/12/29 09:39:22;;;;;;;;;10.67;3.00;;;;;11.95;65.00;100528.00;5018069;28;45577;-67
2022/12/29 09:42:13;;;;;;;;;8.33;5.00;;;;;11.92;64.93;100514.56;5029073;28;45567;-66
2022/12/29 09:45:22;;;;;;;;;3.67;1.33;;;;;11.94;65.18;100519.94;5035586;28;45348;-67
2022/12/29 09:47:47;;;;;;;;;5.00;2.33;;;;;11.96;63.97;100519.13;4950338;28;45461;-66
2022/12/29 09:50:35;;;;;;;;;8.00;3.33;;;;;12.00;64.75;100529.88;4935524;28;45361;-66
2022/12/29 09:53:17;;;;;;;;;7.00;4.00;;;;;11.88;63.95;100507.34;4992314;28;46269;-72
2022/12/29 09:55:49;;;;;;;;;4.67;2.00;;;;;12.01;63.54;100529.91;5030520;28;45369;-67
2022/12/29 09:58:25;;;;;;;;;1.67;1.00;;;;;11.88;63.79;100515.38;5025611;28;45861;-65
2022/12/29 10:01:00;;;;;;;;;4.33;1.00;;;;;11.90;64.65;100529.69;5030745;28;45557;-66
2022/12/29 10:03:40;;;;;;;;;4.67;1.33;;;;;11.98;64.28;100548.59;5022767;28;45441;-69
2022/12/29 10:06:42;;;;;;;;;1.67;1.00;;;;;11.95;64.25;100544.06;5005864;28;45628;-69
2022/12/29 10:09:24;;;;;;;;;6.67;5.00;;;;;12.05;64.40;100554.94;5021982;28;45218;-69
2022/12/29 10:11:59;;;;;;;;;4.00;3.00;;;;;12.10;63.93;100546.09;5029956;28;45300;-69
2022/12/29 10:14:58;;;;;;;;;2.00;1.00;;;;;12.14;63.76;100539.03;5034559;28;45336;-67
2022/12/29 10:17:34;;;;;;;;;7.00;3.00;;;;;12.21;62.78;100548.97;5023027;28;45451;-69
2022/12/29 10:20:20;;;;;;;;;3.00;3.00;;;;;12.23;63.23;100541.88;5024003;28;45402;-68
2022/12/29 10:23:13;;;;;;;;;2.00;2.00;;;;;12.27;63.47;100553.53;5005874;28;45563;-68
2022/12/29 10:25:41;;;;;;;;;6.33;3.00;;;;;12.21;63.36;100540.94;5031921;28;45506;-69
2022/12/29 10:28:31;;;;;;;;;2.00;2.00;;;;;12.27;62.36;100556.19;5023660;28;45446;-67
2022/12/29 10:30:58;;;;;;;;;5.33;4.00;;;;;12.26;63.10;100552.63;5016436;28;45461;-68
2022/12/29 10:33:34;;;;;;;;;1.33;1.33;;;;;12.24;62.68;100549.03;5022690;28;45491;-69
2022/12/29 10:36:12;;;;;;;;;5.67;3.33;;;;;12.19;62.88;100533.75;5026827;28;46718;-67
2022/12/29 10:38:47;;;;;;;;;6.67;2.00;;;;;12.23;62.55;100536.50;5034737;28;45482;-67
2022/12/29 10:41:24;;;;;;;;;1.67;1.67;;;;;12.27;62.05;100542.81;5032144;28;45425;-68
2022/12/29 10:43:53;;;;;;;;;2.67;1.00;;;;;12.14;61.79;100518.53;5015631;28;45491;-68
2022/12/29 10:46:38;;;;;;;;;6.00;5.00;;;;;12.27;62.29;100550.84;5015907;28;45621;-68
2022/12/29 10:49:06;;;;;;;;;8.67;3.67;;;;;12.16;61.58;100532.81;5028063;28;45679;-67
2022/12/29 10:51:42;;;;;;;;;3.67;2.00;;;;;12.23;60.93;100544.53;5030899;28;45531;-68
2022/12/29 10:54:18;;;;;;;;;2.00;2.00;;;;;12.22;61.89;100542.72;5033524;28;45518;-67
2022/12/29 10:56:49;;;;;;;;;2.00;2.00;;;;;12.19;60.78;100544.47;5022916;28;45516;-67
2022/12/29 10:59:36;;;;;;;;;2.00;2.00;;;;;12.25;61.10;100540.09;5027234;28;45446;-66
2022/12/29 11:02:04;;;;;;;;;3.33;1.33;;;;;12.28;60.20;100533.91;5022248;28;45562;-69
2022/12/29 11:04:48;;;;;;;;;5.33;2.00;;;;;12.30;60.18;100537.50;5028530;28;45430;-67
2022/12/29 11:07:17;;;;;;;;;6.33;3.00;;;;;12.31;60.66;100534.84;5027971;28;46489;-69
2022/12/29 11:09:44;;;;;;;;;6.33;4.00;;;;;12.32;60.66;100527.69;5027667;28;45497;-68
2022/12/29 11:12:25;;;;;;;;;9.00;4.67;;;;;12.43;59.71;100536.81;5028038;28;45350;-67
2022/12/29 11:15:20;;;;;;;;;3.33;2.33;;;;;12.44;59.38;100540.38;5010275;28;45586;-69
2022/12/29 11:17:49;;;;;;;;;4.67;2.00;;;;;12.43;58.82;100541.28;5012571;28;45494;-68
2022/12/29 11:20:42;;;;;;;;;7.33;3.00;;;;;12.46;59.01;100546.69;5032808;28;45460;-67
2022/12/29 11:23:26;;;;;;;;;5.33;3.00;;;;;12.49;59.63;100542.28;5029680;28;45474;-70
2022/12/29 11:26:22;;;;;;;;;3.33;3.00;;;;;12.50;59.07;100553.88;5031224;28;45673;-68
2022/12/29 11:29:19;;;;;;;;;4.33;4.33;;;;;12.49;59.06;100549.44;5021550;28;45657;-70
2022/12/29 11:31:51;;;;;;;;;4.33;3.00;;;;;12.56;58.42;100548.63;5023949;28;45548;-70
2022/12/29 11:34:37;;;;;;;;;12.00;3.67;;;;;12.61;58.42;100554.06;5028826;28;45501;-70
2022/12/29 11:37:04;;;;;;;;;8.00;3.33;;;;;12.61;58.87;100548.69;5028562;28;45447;-68
2022/12/29 11:39:37;;;;;;;;;7.00;5.00;;;;;12.66;58.08;100549.66;5031091;28;45378;-68
2022/12/29 11:42:04;;;;;;;;;5.33;2.00;;;;;12.70;57.67;100541.69;5030295;28;45643;-67
2022/12/29 11:44:37;;;;;;;;;3.67;2.00;;;;;12.73;57.13;100528.31;5024545;28;45494;-68
2022/12/29 11:47:05;;;;;;;;;3.33;2.67;;;;;12.76;57.25;100551.59;5022577;28;45741;-67
2022/12/29 11:49:31;;;;;;;;;9.00;5.00;;;;;12.45;58.02;100496.66;5023997;28;45528;-66
2022/12/29 11:51:56;;;;;;;;;3.67;3.67;;;;;12.75;57.63;100532.81;5027822;28;45298;-66
2022/12/29 11:54:33;;;;;;;;;8.67;2.00;;;;;12.77;57.38;100536.41;4996970;28;45613;-68
2022/12/29 11:57:13;;;;;;;;;4.00;4.00;;;;;12.82;57.84;100542.72;5026169;28;45442;-66
2022/12/29 11:59:49;;;;;;;;;6.00;4.00;;;;;12.73;57.13;100520.28;5026979;28;46319;-67
2022/12/29 12:02:47;;;;;;;;;3.00;3.00;;;;;12.81;56.07;100516.81;5027416;28;45344;-67
2022/12/29 12:05:27;;;;;;;;;1.67;1.67;;;;;12.93;56.20;100510.72;5008830;28;45669;-68
2022/12/29 12:08:14;;;;;;;;;5.00;4.33;;;;;12.91;56.40;100508.91;5027415;28;45920;-67
2022/12/29 12:11:00;;;;;;;;;5.33;2.00;;;;;12.66;56.09;100462.09;5016648;28;46238;-68
2022/12/29 12:13:33;;;;;;;;;5.00;3.33;;;;;12.71;56.09;100455.03;5015244;28;45332;-68